Georgetown, Iowa
Current Conditions -  °F | °C
As of 6:00 AM on Wednesday 28 Jan 2015 (Local Time) from KOTM Reporting Station
Haze Haze  
Wind Chill: 17°   Ceiling: Unl
Heat Index: 28°   Visibility: 6mi
Dew Point: 26°   Wind: 13mph
Humidity: 92%   Direction: 130°SE
Pressure: 30.1"   Gusts: NA
Location:  41.0299°N, 92.7795°W
Report Text: KOTM 281200Z AUTO 13011KT 6SM BR SCT009 M02/M03 A3010 RMK AO2 T10221033
Loading
Personal Weather Stations






























Interactive Weather Map New forecast layout! Learn more

10-Day Weather Forecast

Advertisements
Track Severe Weather on mobile